sensor_id;sensor_type;location;lat;lon;timestamp;temperature;humidity
43087;DHT22;28708;52.224;6.924;2022-10-22T00:01:51;13.50;99.90
43087;DHT22;28708;52.224;6.924;2022-10-22T00:04:17;13.40;99.90
43087;DHT22;28708;52.224;6.924;2022-10-22T00:06:43;13.50;99.90
43087;DHT22;28708;52.224;6.924;2022-10-22T00:09:11;13.50;99.90
43087;DHT22;28708;52.224;6.924;2022-10-22T00:11:37;13.60;99.90
43087;DHT22;28708;52.224;6.924;2022-10-22T00:14:03;13.70;99.90
43087;DHT22;28708;52.224;6.924;2022-10-22T00:16:29;13.60;99.90
43087;DHT22;28708;52.224;6.924;2022-10-22T00:18:55;13.60;99.90
43087;DHT22;28708;52.224;6.924;2022-10-22T00:21:20;13.70;99.90
43087;DHT22;28708;52.224;6.924;2022-10-22T00:23:47;13.70;99.90
43087;DHT22;28708;52.224;6.924;2022-10-22T00:26:13;13.60;99.90
43087;DHT22;28708;52.224;6.924;2022-10-22T00:28:39;13.60;99.90
43087;DHT22;28708;52.224;6.924;2022-10-22T00:31:06;13.70;99.90
43087;DHT22;28708;52.224;6.924;2022-10-22T00:33:32;13.70;99.90
43087;DHT22;28708;52.224;6.924;2022-10-22T00:35:58;13.70;99.90
43087;DHT22;28708;52.224;6.924;2022-10-22T00:38:24;13.70;99.90
43087;DHT22;28708;52.224;6.924;2022-10-22T00:40:50;13.70;99.90
43087;DHT22;28708;52.224;6.924;2022-10-22T00:43:17;13.80;99.90
43087;DHT22;28708;52.224;6.924;2022-10-22T00:45:44;13.80;99.90
43087;DHT22;28708;52.224;6.924;2022-10-22T00:48:13;13.80;99.90
43087;DHT22;28708;52.224;6.924;2022-10-22T00:50:55;13.80;99.90
43087;DHT22;28708;52.224;6.924;2022-10-22T00:53:28;13.80;99.90
43087;DHT22;28708;52.224;6.924;2022-10-22T00:55:56;13.70;99.90
43087;DHT22;28708;52.224;6.924;2022-10-22T00:58:25;13.70;99.90
43087;DHT22;28708;52.224;6.924;2022-10-22T01:00:52;13.70;99.90
43087;DHT22;28708;52.224;6.924;2022-10-22T01:03:19;13.60;99.90
43087;DHT22;28708;52.224;6.924;2022-10-22T01:06:04;13.60;99.90
43087;DHT22;28708;52.224;6.924;2022-10-22T01:14:22;13.60;99.90
43087;DHT22;28708;52.224;6.924;2022-10-22T01:19:53;13.60;99.90
43087;DHT22;28708;52.224;6.924;2022-10-22T01:22:30;13.50;99.90
43087;DHT22;28708;52.224;6.924;2022-10-22T01:25:09;13.50;99.90
43087;DHT22;28708;52.224;6.924;2022-10-22T01:30:23;13.50;99.90
43087;DHT22;28708;52.224;6.924;2022-10-22T01:32:53;13.40;99.90
43087;DHT22;28708;52.224;6.924;2022-10-22T01:35:24;13.40;99.90
43087;DHT22;28708;52.224;6.924;2022-10-22T01:38:00;13.30;99.90
43087;DHT22;28708;52.224;6.924;2022-10-22T01:40:27;13.30;99.90
43087;DHT22;28708;52.224;6.924;2022-10-22T01:43:05;13.20;99.90
43087;DHT22;28708;52.224;6.924;2022-10-22T01:45:49;13.20;99.90
43087;DHT22;28708;52.224;6.924;2022-10-22T01:51:48;13.20;99.90
43087;DHT22;28708;52.224;6.924;2022-10-22T01:57:21;13.20;99.90
43087;DHT22;28708;52.224;6.924;2022-10-22T02:00:00;13.20;99.90
43087;DHT22;28708;52.224;6.924;2022-10-22T02:05:15;13.10;99.90
43087;DHT22;28708;52.224;6.924;2022-10-22T02:07:47;13.10;99.90
43087;DHT22;28708;52.224;6.924;2022-10-22T02:10:15;13.10;99.90
43087;DHT22;28708;52.224;6.924;2022-10-22T02:12:44;13.10;99.90
43087;DHT22;28708;52.224;6.924;2022-10-22T02:15:14;13.10;99.90
43087;DHT22;28708;52.224;6.924;2022-10-22T02:17:42;13.00;99.90
43087;DHT22;28708;52.224;6.924;2022-10-22T02:20:29;13.00;99.90
43087;DHT22;28708;52.224;6.924;2022-10-22T02:22:56;13.00;99.90
43087;DHT22;28708;52.224;6.924;2022-10-22T02:25:24;13.10;99.90
43087;DHT22;28708;52.224;6.924;2022-10-22T02:30:27;13.10;99.90
43087;DHT22;28708;52.224;6.924;2022-10-22T02:32:59;13.10;99.90
43087;DHT22;28708;52.224;6.924;2022-10-22T02:35:28;13.10;99.90
43087;DHT22;28708;52.224;6.924;2022-10-22T02:37:56;13.10;99.90
43087;DHT22;28708;52.224;6.924;2022-10-22T02:40:23;13.10;99.90
43087;DHT22;28708;52.224;6.924;2022-10-22T02:42:50;13.10;99.90
43087;DHT22;28708;52.224;6.924;2022-10-22T02:45:19;13.00;99.90
43087;DHT22;28708;52.224;6.924;2022-10-22T02:47:45;13.10;99.90
43087;DHT22;28708;52.224;6.924;2022-10-22T02:50:11;13.00;99.90
43087;DHT22;28708;52.224;6.924;2022-10-22T02:52:37;13.00;99.90
43087;DHT22;28708;52.224;6.924;2022-10-22T02:55:04;13.00;99.90
43087;DHT22;28708;52.224;6.924;2022-10-22T02:57:30;13.00;99.90
43087;DHT22;28708;52.224;6.924;2022-10-22T02:59:56;13.00;99.90
43087;DHT22;28708;52.224;6.924;2022-10-22T03:02:22;13.00;99.90
43087;DHT22;28708;52.224;6.924;2022-10-22T03:04:48;13.00;99.90
43087;DHT22;28708;52.224;6.924;2022-10-22T03:07:14;13.00;99.90
43087;DHT22;28708;52.224;6.924;2022-10-22T03:09:39;13.00;99.90
43087;DHT22;28708;52.224;6.924;2022-10-22T03:12:05;12.90;99.90
43087;DHT22;28708;52.224;6.924;2022-10-22T03:14:34;12.80;99.90
43087;DHT22;28708;52.224;6.924;2022-10-22T03:16:59;12.70;99.90
43087;DHT22;28708;52.224;6.924;2022-10-22T03:19:25;12.70;99.90
43087;DHT22;28708;52.224;6.924;2022-10-22T03:22:02;12.70;99.90
43087;DHT22;28708;52.224;6.924;2022-10-22T03:24:35;12.70;99.90
43087;DHT22;28708;52.224;6.924;2022-10-22T03:27:03;12.70;99.90
43087;DHT22;28708;52.224;6.924;2022-10-22T03:29:31;12.60;99.90
43087;DHT22;28708;52.224;6.924;2022-10-22T03:31:58;12.60;99.90
43087;DHT22;28708;52.224;6.924;2022-10-22T03:34:24;12.60;99.90
43087;DHT22;28708;52.224;6.924;2022-10-22T03:36:51;12.50;99.90
43087;DHT22;28708;52.224;6.924;2022-10-22T03:39:17;12.50;99.90
43087;DHT22;28708;52.224;6.924;2022-10-22T03:41:45;12.60;99.90
43087;DHT22;28708;52.224;6.924;2022-10-22T03:44:11;12.50;99.90
43087;DHT22;28708;52.224;6.924;2022-10-22T03:46:37;12.50;99.90
43087;DHT22;28708;52.224;6.924;2022-10-22T03:49:03;12.50;99.90
43087;DHT22;28708;52.224;6.924;2022-10-22T03:51:29;12.50;99.90
43087;DHT22;28708;52.224;6.924;2022-10-22T03:53:55;12.40;99.90
43087;DHT22;28708;52.224;6.924;2022-10-22T03:56:21;12.40;99.90
43087;DHT22;28708;52.224;6.924;2022-10-22T03:58:46;12.30;99.90
43087;DHT22;28708;52.224;6.924;2022-10-22T04:01:12;12.20;99.90
43087;DHT22;28708;52.224;6.924;2022-10-22T04:03:39;12.30;99.90
43087;DHT22;28708;52.224;6.924;2022-10-22T04:06:10;12.30;99.90
43087;DHT22;28708;52.224;6.924;2022-10-22T04:08:38;12.20;99.90
43087;DHT22;28708;52.224;6.924;2022-10-22T04:11:04;12.20;99.90
43087;DHT22;28708;52.224;6.924;2022-10-22T04:13:30;12.20;99.90
43087;DHT22;28708;52.224;6.924;2022-10-22T04:16:09;12.20;99.90
43087;DHT22;28708;52.224;6.924;2022-10-22T04:18:35;12.20;99.90
43087;DHT22;28708;52.224;6.924;2022-10-22T04:21:01;12.10;99.90
43087;DHT22;28708;52.224;6.924;2022-10-22T04:23:27;12.10;99.90
43087;DHT22;28708;52.224;6.924;2022-10-22T04:26:01;12.10;99.90
43087;DHT22;28708;52.224;6.924;2022-10-22T04:28:27;12.20;99.90
43087;DHT22;28708;52.224;6.924;2022-10-22T04:30:52;12.20;99.90
43087;DHT22;28708;52.224;6.924;2022-10-22T04:33:19;12.30;99.90
43087;DHT22;28708;52.224;6.924;2022-10-22T04:35:44;12.30;99.90
43087;DHT22;28708;52.224;6.924;2022-10-22T04:38:11;12.30;99.90
43087;DHT22;28708;52.224;6.924;2022-10-22T04:40:36;12.30;99.90
43087;DHT22;28708;52.224;6.924;2022-10-22T04:43:02;12.30;99.90
43087;DHT22;28708;52.224;6.924;2022-10-22T04:45:28;12.40;99.90
43087;DHT22;28708;52.224;6.924;2022-10-22T04:47:54;12.30;99.90
43087;DHT22;28708;52.224;6.924;2022-10-22T04:50:20;12.30;99.90
43087;DHT22;28708;52.224;6.924;2022-10-22T04:52:46;12.30;99.90
43087;DHT22;28708;52.224;6.924;2022-10-22T04:55:11;12.40;99.90
43087;DHT22;28708;52.224;6.924;2022-10-22T04:57:37;12.40;99.90
43087;DHT22;28708;52.224;6.924;2022-10-22T05:00:03;12.40;99.90
43087;DHT22;28708;52.224;6.924;2022-10-22T05:02:29;12.40;99.90
43087;DHT22;28708;52.224;6.924;2022-10-22T05:04:55;12.50;99.90
43087;DHT22;28708;52.224;6.924;2022-10-22T05:07:21;12.60;99.90
43087;DHT22;28708;52.224;6.924;2022-10-22T05:09:48;12.60;99.90
43087;DHT22;28708;52.224;6.924;2022-10-22T05:12:14;12.70;99.90
43087;DHT22;28708;52.224;6.924;2022-10-22T05:14:40;12.70;99.90
43087;DHT22;28708;52.224;6.924;2022-10-22T05:17:06;12.80;99.90
43087;DHT22;28708;52.224;6.924;2022-10-22T05:19:32;12.80;99.90
43087;DHT22;28708;52.224;6.924;2022-10-22T05:22:00;12.70;99.90
43087;DHT22;28708;52.224;6.924;2022-10-22T05:24:33;12.80;99.90
43087;DHT22;28708;52.224;6.924;2022-10-22T05:27:02;12.80;99.90
43087;DHT22;28708;52.224;6.924;2022-10-22T05:29:28;12.80;99.90
43087;DHT22;28708;52.224;6.924;2022-10-22T05:31:54;12.90;99.90
43087;DHT22;28708;52.224;6.924;2022-10-22T05:34:20;12.80;99.90
43087;DHT22;28708;52.224;6.924;2022-10-22T05:36:46;12.80;99.90
43087;DHT22;28708;52.224;6.924;2022-10-22T05:39:11;12.90;99.90
43087;DHT22;28708;52.224;6.924;2022-10-22T05:41:37;12.90;99.90
43087;DHT22;28708;52.224;6.924;2022-10-22T05:44:04;12.90;99.90
43087;DHT22;28708;52.224;6.924;2022-10-22T05:46:33;12.90;99.90
43087;DHT22;28708;52.224;6.924;2022-10-22T05:49:02;13.00;99.90
43087;DHT22;28708;52.224;6.924;2022-10-22T05:51:34;13.10;99.90
43087;DHT22;28708;52.224;6.924;2022-10-22T05:54:02;13.00;99.90
43087;DHT22;28708;52.224;6.924;2022-10-22T05:56:29;13.10;99.90
43087;DHT22;28708;52.224;6.924;2022-10-22T05:58:56;13.10;99.90
43087;DHT22;28708;52.224;6.924;2022-10-22T06:01:25;13.20;99.90
43087;DHT22;28708;52.224;6.924;2022-10-22T06:03:56;13.10;99.90
43087;DHT22;28708;52.224;6.924;2022-10-22T06:06:41;13.20;99.90
43087;DHT22;28708;52.224;6.924;2022-10-22T06:09:37;13.20;99.90
43087;DHT22;28708;52.224;6.924;2022-10-22T06:12:03;13.20;99.90
43087;DHT22;28708;52.224;6.924;2022-10-22T06:14:33;13.20;99.90
43087;DHT22;28708;52.224;6.924;2022-10-22T06:16:59;13.20;99.90
43087;DHT22;28708;52.224;6.924;2022-10-22T06:19:25;13.20;99.90
43087;DHT22;28708;52.224;6.924;2022-10-22T06:21:51;13.20;99.90
43087;DHT22;28708;52.224;6.924;2022-10-22T06:24:17;13.20;99.90
43087;DHT22;28708;52.224;6.924;2022-10-22T06:26:43;13.30;99.90
43087;DHT22;28708;52.224;6.924;2022-10-22T06:29:09;13.30;99.90
43087;DHT22;28708;52.224;6.924;2022-10-22T06:31:35;13.40;99.90
43087;DHT22;28708;52.224;6.924;2022-10-22T06:34:06;13.40;99.90
43087;DHT22;28708;52.224;6.924;2022-10-22T06:36:33;13.40;99.90
43087;DHT22;28708;52.224;6.924;2022-10-22T06:38:59;13.50;99.90
43087;DHT22;28708;52.224;6.924;2022-10-22T06:41:25;13.50;99.90
43087;DHT22;28708;52.224;6.924;2022-10-22T06:43:52;13.50;99.90
43087;DHT22;28708;52.224;6.924;2022-10-22T06:46:20;13.60;99.90
43087;DHT22;28708;52.224;6.924;2022-10-22T06:48:51;13.60;99.90
43087;DHT22;28708;52.224;6.924;2022-10-22T06:51:18;13.70;99.90
43087;DHT22;28708;52.224;6.924;2022-10-22T06:53:46;13.70;99.90
43087;DHT22;28708;52.224;6.924;2022-10-22T06:56:14;13.80;99.90
43087;DHT22;28708;52.224;6.924;2022-10-22T06:58:40;13.80;99.90
43087;DHT22;28708;52.224;6.924;2022-10-22T07:01:11;13.80;99.90
43087;DHT22;28708;52.224;6.924;2022-10-22T07:03:38;13.90;99.90
43087;DHT22;28708;52.224;6.924;2022-10-22T07:06:07;13.90;99.90
43087;DHT22;28708;52.224;6.924;2022-10-22T07:08:33;13.80;99.90
43087;DHT22;28708;52.224;6.924;2022-10-22T07:11:12;13.90;99.90
43087;DHT22;28708;52.224;6.924;2022-10-22T07:13:38;13.90;99.90
43087;DHT22;28708;52.224;6.924;2022-10-22T07:16:05;13.90;99.90
43087;DHT22;28708;52.224;6.924;2022-10-22T07:18:31;14.00;99.90
43087;DHT22;28708;52.224;6.924;2022-10-22T07:20:57;14.00;99.90
43087;DHT22;28708;52.224;6.924;2022-10-22T07:23:24;14.00;99.90
43087;DHT22;28708;52.224;6.924;2022-10-22T07:25:50;14.00;99.90
43087;DHT22;28708;52.224;6.924;2022-10-22T07:28:16;14.00;99.90
43087;DHT22;28708;52.224;6.924;2022-10-22T07:30:42;14.00;99.90
43087;DHT22;28708;52.224;6.924;2022-10-22T07:33:08;14.00;99.90
43087;DHT22;28708;52.224;6.924;2022-10-22T07:35:35;14.10;99.90
43087;DHT22;28708;52.224;6.924;2022-10-22T07:38:02;14.10;99.90
43087;DHT22;28708;52.224;6.924;2022-10-22T07:40:27;14.20;99.90
43087;DHT22;28708;52.224;6.924;2022-10-22T07:42:53;14.30;99.90
43087;DHT22;28708;52.224;6.924;2022-10-22T07:45:19;14.40;99.90
43087;DHT22;28708;52.224;6.924;2022-10-22T07:47:46;14.60;99.90
43087;DHT22;28708;52.224;6.924;2022-10-22T07:50:12;14.70;99.90
43087;DHT22;28708;52.224;6.924;2022-10-22T07:52:38;14.80;99.90
43087;DHT22;28708;52.224;6.924;2022-10-22T07:55:04;15.00;99.90
43087;DHT22;28708;52.224;6.924;2022-10-22T07:57:30;15.00;99.90
43087;DHT22;28708;52.224;6.924;2022-10-22T07:59:56;15.10;99.90
43087;DHT22;28708;52.224;6.924;2022-10-22T08:02:24;15.20;99.90
43087;DHT22;28708;52.224;6.924;2022-10-22T08:04:50;15.20;99.90
43087;DHT22;28708;52.224;6.924;2022-10-22T08:07:17;15.10;99.90
43087;DHT22;28708;52.224;6.924;2022-10-22T08:09:43;15.10;99.90
43087;DHT22;28708;52.224;6.924;2022-10-22T08:12:09;15.00;99.90
43087;DHT22;28708;52.224;6.924;2022-10-22T08:14:35;15.00;99.90
43087;DHT22;28708;52.224;6.924;2022-10-22T08:17:01;15.00;99.90
43087;DHT22;28708;52.224;6.924;2022-10-22T08:19:26;15.10;99.90
43087;DHT22;28708;52.224;6.924;2022-10-22T08:21:54;15.30;99.90
43087;DHT22;28708;52.224;6.924;2022-10-22T08:24:20;15.40;99.90
43087;DHT22;28708;52.224;6.924;2022-10-22T08:26:45;15.50;99.90
43087;DHT22;28708;52.224;6.924;2022-10-22T08:29:11;15.50;99.90
43087;DHT22;28708;52.224;6.924;2022-10-22T08:31:37;15.40;99.90
43087;DHT22;28708;52.224;6.924;2022-10-22T08:34:03;15.40;99.90
43087;DHT22;28708;52.224;6.924;2022-10-22T08:36:30;15.40;99.90
43087;DHT22;28708;52.224;6.924;2022-10-22T08:38:56;15.50;99.90
43087;DHT22;28708;52.224;6.924;2022-10-22T08:41:23;15.50;99.90
43087;DHT22;28708;52.224;6.924;2022-10-22T08:44:37;15.60;99.90
43087;DHT22;28708;52.224;6.924;2022-10-22T08:49:27;15.60;99.90
43087;DHT22;28708;52.224;6.924;2022-10-22T08:51:56;15.70;99.90
43087;DHT22;28708;52.224;6.924;2022-10-22T09:00:27;16.30;99.90
43087;DHT22;28708;52.224;6.924;2022-10-22T09:06:18;16.00;99.90
43087;DHT22;28708;52.224;6.924;2022-10-22T09:08:45;16.10;99.90
43087;DHT22;28708;52.224;6.924;2022-10-22T09:13:40;15.90;99.90
43087;DHT22;28708;52.224;6.924;2022-10-22T09:16:17;16.00;99.90
43087;DHT22;28708;52.224;6.924;2022-10-22T09:19:05;15.90;99.90
43087;DHT22;28708;52.224;6.924;2022-10-22T09:27:01;15.90;99.90
43087;DHT22;28708;52.224;6.924;2022-10-22T09:29:34;15.80;99.90
43087;DHT22;28708;52.224;6.924;2022-10-22T09:32:00;15.90;99.90
43087;DHT22;28708;52.224;6.924;2022-10-22T09:34:27;15.90;99.90
43087;DHT22;28708;52.224;6.924;2022-10-22T09:36:58;15.90;99.90
43087;DHT22;28708;52.224;6.924;2022-10-22T09:39:31;15.90;99.90
43087;DHT22;28708;52.224;6.924;2022-10-22T09:41:58;15.90;99.90
43087;DHT22;28708;52.224;6.924;2022-10-22T09:44:24;16.00;99.90
43087;DHT22;28708;52.224;6.924;2022-10-22T09:46:50;16.00;99.90
43087;DHT22;28708;52.224;6.924;2022-10-22T09:49:19;16.10;99.90
43087;DHT22;28708;52.224;6.924;2022-10-22T09:51:51;16.20;99.90
43087;DHT22;28708;52.224;6.924;2022-10-22T09:57:35;16.80;99.90
43087;DHT22;28708;52.224;6.924;2022-10-22T09:59:46;16.80;99.90
43087;DHT22;28708;52.224;6.924;2022-10-22T10:02:18;16.60;99.90
43087;DHT22;28708;52.224;6.924;2022-10-22T10:04:50;16.50;99.90
43087;DHT22;28708;52.224;6.924;2022-10-22T10:07:22;16.10;99.90
43087;DHT22;28708;52.224;6.924;2022-10-22T10:09:49;16.10;99.90
43087;DHT22;28708;52.224;6.924;2022-10-22T10:23:13;16.10;99.90
43087;DHT22;28708;52.224;6.924;2022-10-22T10:26:00;16.20;99.90
43087;DHT22;28708;52.224;6.924;2022-10-22T10:28:47;16.10;99.90
43087;DHT22;28708;52.224;6.924;2022-10-22T10:36:53;16.30;99.90
43087;DHT22;28708;52.224;6.924;2022-10-22T10:42:21;16.20;99.90
43087;DHT22;28708;52.224;6.924;2022-10-22T10:48:04;16.10;99.90
43087;DHT22;28708;52.224;6.924;2022-10-22T10:51:20;16.10;99.90
43087;DHT22;28708;52.224;6.924;2022-10-22T10:53:53;16.00;99.90
43087;DHT22;28708;52.224;6.924;2022-10-22T11:07:24;15.20;99.90
43087;DHT22;28708;52.224;6.924;2022-10-22T11:12:45;15.10;99.90
43087;DHT22;28708;52.224;6.924;2022-10-22T11:15:33;15.10;99.90
43087;DHT22;28708;52.224;6.924;2022-10-22T11:23:45;15.10;99.90
43087;DHT22;28708;52.224;6.924;2022-10-22T11:26:29;15.30;99.90
43087;DHT22;28708;52.224;6.924;2022-10-22T11:29:00;15.40;99.90
43087;DHT22;28708;52.224;6.924;2022-10-22T11:31:29;15.40;99.90
43087;DHT22;28708;52.224;6.924;2022-10-22T11:34:17;15.50;99.90
43087;DHT22;28708;52.224;6.924;2022-10-22T11:36:44;15.60;99.90
43087;DHT22;28708;52.224;6.924;2022-10-22T11:42:36;15.60;99.90
43087;DHT22;28708;52.224;6.924;2022-10-22T11:58:31;15.70;99.90
43087;DHT22;28708;52.224;6.924;2022-10-22T12:03:42;15.70;99.90
43087;DHT22;28708;52.224;6.924;2022-10-22T12:08:44;15.70;99.90
43087;DHT22;28708;52.224;6.924;2022-10-22T12:16:38;15.70;99.90
43087;DHT22;28708;52.224;6.924;2022-10-22T12:19:15;15.80;99.90
43087;DHT22;28708;52.224;6.924;2022-10-22T12:21:46;16.00;99.90
43087;DHT22;28708;52.224;6.924;2022-10-22T12:24:15;16.20;99.90
43087;DHT22;28708;52.224;6.924;2022-10-22T12:26:42;16.30;99.90
43087;DHT22;28708;52.224;6.924;2022-10-22T12:29:13;16.40;99.90
43087;DHT22;28708;52.224;6.924;2022-10-22T12:31:42;16.80;99.90
43087;DHT22;28708;52.224;6.924;2022-10-22T12:34:17;17.20;99.90
43087;DHT22;28708;52.224;6.924;2022-10-22T12:36:45;17.10;99.90
43087;DHT22;28708;52.224;6.924;2022-10-22T12:39:14;16.80;99.90
43087;DHT22;28708;52.224;6.924;2022-10-22T12:41:41;16.70;99.90
43087;DHT22;28708;52.224;6.924;2022-10-22T12:44:14;16.80;99.90
43087;DHT22;28708;52.224;6.924;2022-10-22T12:46:41;17.00;99.90
43087;DHT22;28708;52.224;6.924;2022-10-22T12:49:16;17.10;99.90
43087;DHT22;28708;52.224;6.924;2022-10-22T12:51:43;16.90;99.90
43087;DHT22;28708;52.224;6.924;2022-10-22T12:54:26;16.80;99.90
43087;DHT22;28708;52.224;6.924;2022-10-22T12:56:54;16.70;99.90
43087;DHT22;28708;52.224;6.924;2022-10-22T12:59:25;17.00;99.90
43087;DHT22;28708;52.224;6.924;2022-10-22T13:01:52;17.10;99.90
43087;DHT22;28708;52.224;6.924;2022-10-22T13:04:29;17.10;99.90
43087;DHT22;28708;52.224;6.924;2022-10-22T13:09:57;17.20;99.90
43087;DHT22;28708;52.224;6.924;2022-10-22T13:12:33;17.40;99.90
43087;DHT22;28708;52.224;6.924;2022-10-22T13:15:21;17.70;99.90
43087;DHT22;28708;52.224;6.924;2022-10-22T13:17:47;17.70;99.90
43087;DHT22;28708;52.224;6.924;2022-10-22T13:20:19;17.60;99.90
43087;DHT22;28708;52.224;6.924;2022-10-22T13:22:58;17.60;99.90
43087;DHT22;28708;52.224;6.924;2022-10-22T13:25:31;17.60;99.90
43087;DHT22;28708;52.224;6.924;2022-10-22T13:30:36;17.30;99.90
43087;DHT22;28708;52.224;6.924;2022-10-22T13:35:54;17.30;99.90
43087;DHT22;28708;52.224;6.924;2022-10-22T13:38:23;17.30;99.90
43087;DHT22;28708;52.224;6.924;2022-10-22T13:40:49;17.30;99.90
43087;DHT22;28708;52.224;6.924;2022-10-22T13:43:16;17.30;99.90
43087;DHT22;28708;52.224;6.924;2022-10-22T13:45:42;17.30;99.90
43087;DHT22;28708;52.224;6.924;2022-10-22T13:48:14;17.30;99.90
43087;DHT22;28708;52.224;6.924;2022-10-22T13:50:40;17.40;99.90
43087;DHT22;28708;52.224;6.924;2022-10-22T13:53:14;17.40;99.90
43087;DHT22;28708;52.224;6.924;2022-10-22T13:55:43;17.30;99.90
43087;DHT22;28708;52.224;6.924;2022-10-22T13:58:12;17.30;99.90
43087;DHT22;28708;52.224;6.924;2022-10-22T14:00:41;17.30;99.90
43087;DHT22;28708;52.224;6.924;2022-10-22T14:03:10;17.20;99.90
43087;DHT22;28708;52.224;6.924;2022-10-22T14:05:37;17.40;99.90
43087;DHT22;28708;52.224;6.924;2022-10-22T14:08:03;17.60;99.90
43087;DHT22;28708;52.224;6.924;2022-10-22T14:10:28;17.40;99.90
43087;DHT22;28708;52.224;6.924;2022-10-22T14:12:54;17.10;99.90
43087;DHT22;28708;52.224;6.924;2022-10-22T14:15:22;17.00;99.90
43087;DHT22;28708;52.224;6.924;2022-10-22T14:17:53;16.90;99.90
43087;DHT22;28708;52.224;6.924;2022-10-22T14:20:23;16.80;99.90
43087;DHT22;28708;52.224;6.924;2022-10-22T14:22:49;16.90;99.90
43087;DHT22;28708;52.224;6.924;2022-10-22T14:25:21;17.20;99.90
43087;DHT22;28708;52.224;6.924;2022-10-22T14:27:47;17.40;99.90
43087;DHT22;28708;52.224;6.924;2022-10-22T14:30:21;17.20;99.90
43087;DHT22;28708;52.224;6.924;2022-10-22T14:32:47;17.00;99.90
43087;DHT22;28708;52.224;6.924;2022-10-22T14:35:20;16.90;99.90
43087;DHT22;28708;52.224;6.924;2022-10-22T14:37:46;16.80;99.90
43087;DHT22;28708;52.224;6.924;2022-10-22T14:40:14;16.90;99.90
43087;DHT22;28708;52.224;6.924;2022-10-22T14:42:42;17.20;99.90
43087;DHT22;28708;52.224;6.924;2022-10-22T14:45:17;17.40;99.90
43087;DHT22;28708;52.224;6.924;2022-10-22T14:47:43;17.50;99.90
43087;DHT22;28708;52.224;6.924;2022-10-22T14:50:10;17.50;99.90
43087;DHT22;28708;52.224;6.924;2022-10-22T14:52:36;17.40;99.90
43087;DHT22;28708;52.224;6.924;2022-10-22T14:55:02;17.40;99.90
43087;DHT22;28708;52.224;6.924;2022-10-22T14:57:28;17.40;99.90
43087;DHT22;28708;52.224;6.924;2022-10-22T14:59:53;17.50;99.90
43087;DHT22;28708;52.224;6.924;2022-10-22T15:02:20;17.50;99.90
43087;DHT22;28708;52.224;6.924;2022-10-22T15:04:47;17.50;99.90
43087;DHT22;28708;52.224;6.924;2022-10-22T15:07:13;17.50;99.90
43087;DHT22;28708;52.224;6.924;2022-10-22T15:09:39;17.40;99.90
43087;DHT22;28708;52.224;6.924;2022-10-22T15:12:05;17.30;99.90
43087;DHT22;28708;52.224;6.924;2022-10-22T15:14:31;17.30;99.90
43087;DHT22;28708;52.224;6.924;2022-10-22T15:16:58;17.30;99.90
43087;DHT22;28708;52.224;6.924;2022-10-22T15:19:24;17.30;99.90
43087;DHT22;28708;52.224;6.924;2022-10-22T15:21:50;17.30;99.90
43087;DHT22;28708;52.224;6.924;2022-10-22T15:24:16;17.10;99.90
43087;DHT22;28708;52.224;6.924;2022-10-22T15:26:42;17.00;99.90
43087;DHT22;28708;52.224;6.924;2022-10-22T15:29:08;16.80;99.90
43087;DHT22;28708;52.224;6.924;2022-10-22T15:34:25;16.50;99.90
43087;DHT22;28708;52.224;6.924;2022-10-22T15:36:54;16.40;99.90
43087;DHT22;28708;52.224;6.924;2022-10-22T15:39:20;16.30;99.90
43087;DHT22;28708;52.224;6.924;2022-10-22T15:41:48;16.20;99.90
43087;DHT22;28708;52.224;6.924;2022-10-22T15:44:22;16.10;99.90
43087;DHT22;28708;52.224;6.924;2022-10-22T15:46:49;16.10;99.90
43087;DHT22;28708;52.224;6.924;2022-10-22T15:49:16;16.10;99.90
43087;DHT22;28708;52.224;6.924;2022-10-22T15:51:43;16.00;99.90
43087;DHT22;28708;52.224;6.924;2022-10-22T15:54:16;16.00;99.90
43087;DHT22;28708;52.224;6.924;2022-10-22T15:56:42;15.90;99.90
43087;DHT22;28708;52.224;6.924;2022-10-22T15:59:09;15.80;99.90
43087;DHT22;28708;52.224;6.924;2022-10-22T16:01:36;15.80;99.90
43087;DHT22;28708;52.224;6.924;2022-10-22T16:04:03;15.80;99.90
43087;DHT22;28708;52.224;6.924;2022-10-22T16:06:32;15.80;99.90
43087;DHT22;28708;52.224;6.924;2022-10-22T16:08:59;15.80;99.90
43087;DHT22;28708;52.224;6.924;2022-10-22T16:11:27;15.80;99.90
43087;DHT22;28708;52.224;6.924;2022-10-22T16:13:54;15.70;99.90
43087;DHT22;28708;52.224;6.924;2022-10-22T16:16:22;15.60;99.90
43087;DHT22;28708;52.224;6.924;2022-10-22T16:18:52;15.60;99.90
43087;DHT22;28708;52.224;6.924;2022-10-22T16:21:19;15.50;99.90
43087;DHT22;28708;52.224;6.924;2022-10-22T16:23:45;15.50;99.90
43087;DHT22;28708;52.224;6.924;2022-10-22T16:26:12;15.50;99.90
43087;DHT22;28708;52.224;6.924;2022-10-22T16:28:40;15.50;99.90
43087;DHT22;28708;52.224;6.924;2022-10-22T16:31:09;15.50;99.90
43087;DHT22;28708;52.224;6.924;2022-10-22T16:33:37;15.50;99.90
43087;DHT22;28708;52.224;6.924;2022-10-22T16:36:05;15.50;99.90
43087;DHT22;28708;52.224;6.924;2022-10-22T16:38:31;15.50;99.90
43087;DHT22;28708;52.224;6.924;2022-10-22T16:41:21;15.40;99.90
43087;DHT22;28708;52.224;6.924;2022-10-22T16:43:48;15.30;99.90
43087;DHT22;28708;52.224;6.924;2022-10-22T16:46:18;15.20;99.90
43087;DHT22;28708;52.224;6.924;2022-10-22T16:48:46;15.10;99.90
43087;DHT22;28708;52.224;6.924;2022-10-22T16:51:14;15.00;99.90
43087;DHT22;28708;52.224;6.924;2022-10-22T16:53:40;15.00;99.90
43087;DHT22;28708;52.224;6.924;2022-10-22T16:56:10;15.10;99.90
43087;DHT22;28708;52.224;6.924;2022-10-22T16:58:37;15.00;99.90
43087;DHT22;28708;52.224;6.924;2022-10-22T17:01:07;15.00;99.90
43087;DHT22;28708;52.224;6.924;2022-10-22T17:03:33;15.00;99.90
43087;DHT22;28708;52.224;6.924;2022-10-22T17:06:00;15.00;99.90
43087;DHT22;28708;52.224;6.924;2022-10-22T17:08:28;14.90;99.90
43087;DHT22;28708;52.224;6.924;2022-10-22T17:10:54;14.90;99.90
43087;DHT22;28708;52.224;6.924;2022-10-22T17:13:21;15.00;99.90
43087;DHT22;28708;52.224;6.924;2022-10-22T17:15:46;15.00;99.90
43087;DHT22;28708;52.224;6.924;2022-10-22T17:18:12;15.00;99.90
43087;DHT22;28708;52.224;6.924;2022-10-22T17:20:42;15.10;99.90
43087;DHT22;28708;52.224;6.924;2022-10-22T17:23:08;15.10;99.90
43087;DHT22;28708;52.224;6.924;2022-10-22T17:25:41;15.00;99.90
43087;DHT22;28708;52.224;6.924;2022-10-22T17:28:08;14.90;99.90
43087;DHT22;28708;52.224;6.924;2022-10-22T17:30:33;14.80;99.90
43087;DHT22;28708;52.224;6.924;2022-10-22T17:33:07;14.80;99.90
43087;DHT22;28708;52.224;6.924;2022-10-22T17:35:34;14.70;99.90
43087;DHT22;28708;52.224;6.924;2022-10-22T17:38:03;14.70;99.90
43087;DHT22;28708;52.224;6.924;2022-10-22T17:40:29;14.70;99.90
43087;DHT22;28708;52.224;6.924;2022-10-22T17:42:55;14.60;99.90
43087;DHT22;28708;52.224;6.924;2022-10-22T17:45:21;14.50;99.90
43087;DHT22;28708;52.224;6.924;2022-10-22T17:47:48;14.50;99.90